< < Back
Terminal Aerodrome Forecast


Current Version              Previous Versions:   1  2  3  4  5  6  7  8  9  

Terminal Aerodrome Forecast

781
FTUS42 KILM 020011 CCB
TAFILM
TAF COR
KILM 020011Z 0200/0224 21009KT P6SM SCT040 SCT120
     FM020500 23006KT P6SM VCSH BKN080
     FM021200 27008KT P6SM FEW050 SCT120 BKN200
     FM021900 22011KT P6SM VCSH SCT050 BKN200=

Latest METAR

166
SAUS70 KWBC 020500
MTRILM
METAR KILM 020453Z 20005KT 9SM CLR 25/22 A2998 RMK AO2 SLP150 T02500222
403110228


USA.gov is the U.S. government's official web portal to all federal, state and local government web resources and services.